Time;durP1;ratioP1;P1;durP2;ratioP2;P2;SDS_P1;SDS_P2;PMS_P1;PMS_P2;Temp;Humidity;BMP_temperature;BMP_pressure;BME280_temperature;BME280_humidity;BME280_pressure;Samples;Min_cycle;Max_cycle;Signal;HPM_P1;HPM_P2
2023/12/07 00:03:47;;;;;;;;;;;15.90;55.00;;;;;;10188722;28;95319;-48
2023/12/07 00:08:49;;;;;;;;;;;15.90;54.90;;;;;;10187050;28;93676;-46
2023/12/07 00:13:52;;;;;;;;;;;15.80;54.70;;;;;;10186499;28;94461;-49
2023/12/07 00:18:53;;;;;;;;;;;15.80;54.80;;;;;;10167264;28;93449;-52
2023/12/07 00:23:55;;;;;;;;;;;15.70;55.40;;;;;;10172333;28;94919;-52
2023/12/07 00:28:57;;;;;;;;;;;15.70;55.60;;;;;;10187795;28;94271;-49
2023/12/07 00:33:59;;;;;;;;;;;15.70;55.40;;;;;;10199066;28;94450;-49
2023/12/07 00:39:01;;;;;;;;;;;15.70;55.20;;;;;;10199238;28;93801;-47
2023/12/07 00:44:02;;;;;;;;;;;15.60;54.70;;;;;;10204629;28;94947;-50
2023/12/07 00:49:04;;;;;;;;;;;15.60;54.70;;;;;;10191281;28;94235;-47
2023/12/07 00:54:06;;;;;;;;;;;15.60;54.60;;;;;;10199208;28;97110;-47
2023/12/07 00:59:08;;;;;;;;;;;15.50;54.40;;;;;;10201851;28;95125;-52
2023/12/07 01:04:10;;;;;;;;;;;15.50;54.20;;;;;;10203840;28;94507;-49
2023/12/07 01:09:13;;;;;;;;;;;15.50;54.30;;;;;;10202031;28;94377;-52
2023/12/07 01:14:15;;;;;;;;;;;15.50;54.70;;;;;;10174826;28;94763;-52
2023/12/07 01:19:17;;;;;;;;;;;15.50;55.20;;;;;;10192842;28;94503;-51
2023/12/07 01:24:19;;;;;;;;;;;15.50;55.00;;;;;;10187107;28;93524;-52
2023/12/07 01:29:21;;;;;;;;;;;15.60;54.70;;;;;;10198315;28;94415;-52
2023/12/07 01:34:23;;;;;;;;;;;15.60;54.40;;;;;;10178954;28;94868;-52
2023/12/07 01:39:24;;;;;;;;;;;15.60;54.20;;;;;;10173983;28;94561;-50
2023/12/07 01:44:27;;;;;;;;;;;15.60;54.10;;;;;;10173251;28;96176;-49
2023/12/07 01:49:29;;;;;;;;;;;15.50;53.80;;;;;;10200512;28;93570;-49
2023/12/07 01:54:31;;;;;;;;;;;15.50;53.90;;;;;;10193234;28;94293;-49
2023/12/07 01:59:33;;;;;;;;;;;15.50;53.60;;;;;;10192970;28;96260;-51
2023/12/07 02:04:35;;;;;;;;;;;15.50;53.40;;;;;;10646179;22;93734;-51
2023/12/07 02:09:37;;;;;;;;;;;15.40;53.90;;;;;;10258196;28;94440;-52
2023/12/07 02:14:39;;;;;;;;;;;15.30;54.30;;;;;;10273361;28;94139;-50
2023/12/07 02:19:50;;;;;;;;;;;15.30;54.40;;;;;;10272259;28;93864;-47
2023/12/07 02:25:04;;;;;;;;;;;15.40;54.20;;;;;;10262507;28;93474;-47
2023/12/07 02:30:07;;;;;;;;;;;15.40;53.90;;;;;;10263681;28;94469;-55
2023/12/07 02:35:09;;;;;;;;;;;15.60;53.70;;;;;;10263586;28;96520;-48
2023/12/07 02:40:14;;;;;;;;;;;15.70;53.30;;;;;;10267999;28;94617;-49
2023/12/07 02:45:16;;;;;;;;;;;15.80;53.00;;;;;;10265263;28;93396;-47
2023/12/07 02:50:18;;;;;;;;;;;15.80;52.70;;;;;;10286324;28;93416;-50
2023/12/07 02:55:20;;;;;;;;;;;15.80;52.50;;;;;;10262247;28;93991;-67
2023/12/07 03:00:22;;;;;;;;;;;15.70;52.50;;;;;;10261259;28;93210;-50
2023/12/07 03:05:24;;;;;;;;;;;15.70;53.00;;;;;;10274318;28;93458;-50
2023/12/07 03:10:26;;;;;;;;;;;15.60;53.30;;;;;;10263664;28;92565;-52
2023/12/07 03:15:27;;;;;;;;;;;15.60;53.50;;;;;;10268763;28;94273;-50
2023/12/07 03:20:29;;;;;;;;;;;15.50;53.60;;;;;;10255142;28;94496;-47
2023/12/07 03:25:31;;;;;;;;;;;15.50;53.70;;;;;;10271899;28;95890;-48
2023/12/07 03:30:33;;;;;;;;;;;15.50;53.80;;;;;;10270078;28;94509;-48
2023/12/07 03:35:34;;;;;;;;;;;15.40;53.90;;;;;;10259339;28;94568;-52
2023/12/07 03:40:36;;;;;;;;;;;15.40;54.10;;;;;;10279078;28;94564;-50
2023/12/07 03:45:38;;;;;;;;;;;15.30;54.10;;;;;;10272211;28;93427;-49
2023/12/07 03:50:40;;;;;;;;;;;15.30;54.20;;;;;;10273954;28;93984;-49
2023/12/07 03:55:42;;;;;;;;;;;15.30;54.40;;;;;;10261612;28;93534;-50
2023/12/07 04:00:44;;;;;;;;;;;15.40;54.40;;;;;;10275588;28;93869;-51
2023/12/07 04:05:46;;;;;;;;;;;15.40;54.20;;;;;;10273979;28;94419;-48
2023/12/07 04:10:49;;;;;;;;;;;15.50;54.10;;;;;;10259831;28;94380;-51
2023/12/07 04:15:51;;;;;;;;;;;15.60;53.90;;;;;;10271589;28;95835;-51
2023/12/07 04:20:53;;;;;;;;;;;15.60;53.70;;;;;;10288970;28;94352;-53
2023/12/07 04:25:55;;;;;;;;;;;15.60;53.60;;;;;;10260234;28;94493;-51
2023/12/07 04:30:57;;;;;;;;;;;15.60;53.60;;;;;;10272370;28;93858;-49
2023/12/07 04:35:58;;;;;;;;;;;15.60;53.60;;;;;;10263660;28;93826;-53
2023/12/07 04:41:00;;;;;;;;;;;15.50;53.60;;;;;;10261585;28;93426;-49
2023/12/07 04:46:03;;;;;;;;;;;15.50;53.70;;;;;;10260238;28;93370;-50
2023/12/07 04:51:05;;;;;;;;;;;15.50;53.80;;;;;;10252963;28;92495;-49
2023/12/07 04:56:07;;;;;;;;;;;15.40;53.70;;;;;;10266587;28;93320;-48
2023/12/07 05:01:09;;;;;;;;;;;15.40;53.90;;;;;;10269176;28;94155;-50
2023/12/07 05:06:11;;;;;;;;;;;15.40;53.90;;;;;;10275170;28;96868;-48
2023/12/07 05:11:13;;;;;;;;;;;15.30;54.00;;;;;;10270711;28;94524;-51
2023/12/07 05:16:15;;;;;;;;;;;15.30;53.90;;;;;;10270097;28;93914;-51
2023/12/07 05:21:16;;;;;;;;;;;15.20;54.10;;;;;;10257347;28;93450;-51
2023/12/07 05:26:18;;;;;;;;;;;15.30;54.10;;;;;;10270238;28;93367;-51
2023/12/07 05:31:20;;;;;;;;;;;15.40;54.00;;;;;;10269538;28;93056;-48
2023/12/07 05:36:23;;;;;;;;;;;15.40;53.80;;;;;;10251314;28;94246;-48
2023/12/07 05:41:28;;;;;;;;;;;15.50;53.70;;;;;;10267460;28;92754;-49
2023/12/07 05:46:29;;;;;;;;;;;15.60;53.70;;;;;;10264795;28;94557;-49
2023/12/07 05:51:31;;;;;;;;;;;15.70;53.50;;;;;;10265274;28;93571;-52
2023/12/07 05:56:33;;;;;;;;;;;15.80;53.20;;;;;;10265149;28;96833;-52
2023/12/07 06:01:34;;;;;;;;;;;15.90;53.10;;;;;;10270004;28;93549;-50
2023/12/07 06:06:36;;;;;;;;;;;15.90;52.90;;;;;;10270815;28;94316;-53
2023/12/07 06:11:38;;;;;;;;;;;16.00;53.10;;;;;;10256398;28;94447;-62
2023/12/07 06:16:40;;;;;;;;;;;16.00;53.00;;;;;;10270359;28;94637;-54
2023/12/07 06:21:44;;;;;;;;;;;16.20;52.90;;;;;;10268742;28;93471;-52
2023/12/07 06:26:45;;;;;;;;;;;16.30;52.80;;;;;;10269088;28;94649;-52
2023/12/07 06:31:47;;;;;;;;;;;16.40;52.70;;;;;;10257171;28;92910;-53
2023/12/07 06:36:49;;;;;;;;;;;16.50;52.60;;;;;;10279476;28;93560;-53
2023/12/07 06:41:51;;;;;;;;;;;16.60;52.30;;;;;;10265086;28;94103;-50
2023/12/07 06:46:53;;;;;;;;;;;16.60;52.30;;;;;;10263825;28;95837;-49
2023/12/07 06:51:55;;;;;;;;;;;16.60;52.20;;;;;;10264410;28;94599;-53
2023/12/07 06:56:57;;;;;;;;;;;16.60;52.30;;;;;;10265694;28;94882;-54
2023/12/07 07:01:59;;;;;;;;;;;16.60;52.30;;;;;;10259618;28;93479;-51
2023/12/07 07:07:01;;;;;;;;;;;16.60;52.40;;;;;;10276867;28;93600;-50
2023/12/07 07:12:04;;;;;;;;;;;16.60;55.30;;;;;;10278315;28;94567;-48
2023/12/07 07:17:06;;;;;;;;;;;16.50;54.40;;;;;;10277400;28;92553;-52
2023/12/07 07:22:09;;;;;;;;;;;16.50;54.90;;;;;;10265393;28;93810;-51
2023/12/07 07:27:11;;;;;;;;;;;16.40;55.40;;;;;;10276064;28;94475;-47
2023/12/07 07:32:13;;;;;;;;;;;16.30;55.80;;;;;;10268254;28;94788;-50
2023/12/07 07:37:14;;;;;;;;;;;16.30;56.50;;;;;;10246988;28;96652;-53
2023/12/07 07:42:16;;;;;;;;;;;16.20;56.30;;;;;;10263737;28;95114;-53
2023/12/07 07:47:18;;;;;;;;;;;16.10;56.30;;;;;;10246124;28;94964;-52
2023/12/07 07:52:20;;;;;;;;;;;16.10;56.30;;;;;;10244132;28;93992;-52
2023/12/07 07:57:22;;;;;;;;;;;16.00;56.50;;;;;;10260536;28;93455;-50
2023/12/07 08:02:24;;;;;;;;;;;15.90;56.50;;;;;;10243414;28;94566;-49
2023/12/07 08:07:26;;;;;;;;;;;15.80;56.50;;;;;;10259460;28;94718;-53
2023/12/07 08:12:29;;;;;;;;;;;15.80;56.50;;;;;;10271103;28;92992;-55
2023/12/07 08:17:30;;;;;;;;;;;15.70;56.30;;;;;;10260084;28;94022;-57
2023/12/07 08:22:32;;;;;;;;;;;15.60;56.40;;;;;;10257738;28;94042;-47
2023/12/07 08:27:35;;;;;;;;;;;15.60;56.30;;;;;;10285901;28;96982;-47
2023/12/07 08:32:37;;;;;;;;;;;15.50;56.30;;;;;;10275645;28;93506;-46
2023/12/07 08:37:39;;;;;;;;;;;15.50;56.40;;;;;;10264083;28;93170;-46
2023/12/07 08:42:45;;;;;;;;;;;15.40;56.30;;;;;;10264331;28;93500;-47
2023/12/07 08:47:49;;;;;;;;;;;15.40;56.30;;;;;;10271547;28;95510;-53
2023/12/07 08:52:50;;;;;;;;;;;15.30;56.20;;;;;;10252325;28;94576;-47
2023/12/07 08:58:00;;;;;;;;;;;15.30;56.30;;;;;;10258986;28;94171;-50
2023/12/07 09:03:02;;;;;;;;;;;15.20;56.50;;;;;;10263419;28;93988;-48
2023/12/07 09:08:04;;;;;;;;;;;15.20;56.50;;;;;;10271463;28;93877;-50
2023/12/07 09:13:06;;;;;;;;;;;15.20;56.50;;;;;;10272977;28;94446;-46
2023/12/07 09:18:08;;;;;;;;;;;15.10;56.50;;;;;;10262443;28;96821;-48
2023/12/07 09:23:09;;;;;;;;;;;15.20;56.40;;;;;;10289634;28;94581;-47
2023/12/07 09:28:12;;;;;;;;;;;15.30;56.30;;;;;;10271999;28;94433;-49
2023/12/07 09:33:14;;;;;;;;;;;15.40;56.20;;;;;;10249812;28;93114;-51
2023/12/07 09:38:16;;;;;;;;;;;15.50;56.00;;;;;;10271362;28;93800;-51
2023/12/07 09:43:18;;;;;;;;;;;15.50;55.80;;;;;;10259549;28;94629;-49
2023/12/07 09:48:21;;;;;;;;;;;15.50;55.80;;;;;;10267724;28;94238;-51
2023/12/07 09:53:23;;;;;;;;;;;15.50;55.70;;;;;;10265405;28;93694;-48
2023/12/07 09:58:25;;;;;;;;;;;15.50;55.70;;;;;;10264744;28;94379;-49
2023/12/07 10:03:39;;;;;;;;;;;15.40;55.60;;;;;;10270798;28;94624;-66
2023/12/07 10:08:40;;;;;;;;;;;15.40;55.70;;;;;;10276656;28;96033;-49
2023/12/07 10:13:42;;;;;;;;;;;15.40;55.80;;;;;;10268882;28;94440;-50
2023/12/07 10:18:44;;;;;;;;;;;15.30;55.90;;;;;;10259992;28;94452;-51
2023/12/07 10:23:47;;;;;;;;;;;15.30;55.90;;;;;;10276030;28;94021;-48
2023/12/07 10:28:53;;;;;;;;;;;15.20;55.80;;;;;;10260959;28;93760;-47
2023/12/07 10:33:56;;;;;;;;;;;15.20;55.80;;;;;;10244258;28;93421;-48
2023/12/07 10:38:58;;;;;;;;;;;15.10;55.80;;;;;;10270150;28;93461;-51
2023/12/07 10:44:00;;;;;;;;;;;15.10;55.90;;;;;;10249026;28;92479;-50
2023/12/07 10:49:07;;;;;;;;;;;15.10;55.80;;;;;;10275566;28;93473;-49
2023/12/07 10:54:22;;;;;;;;;;;15.00;55.80;;;;;;10249989;28;93520;-54
2023/12/07 10:59:24;;;;;;;;;;;15.00;55.90;;;;;;10263213;28;95860;-49
2023/12/07 11:04:34;;;;;;;;;;;14.90;56.10;;;;;;10200705;28;1893138;-50
2023/12/07 11:09:41;;;;;;;;;;;15.00;57.10;;;;;;10276584;28;94436;-57
2023/12/07 11:14:43;;;;;;;;;;;15.10;56.10;;;;;;10270463;28;92905;-49
2023/12/07 11:19:48;;;;;;;;;;;15.20;56.00;;;;;;10265084;28;94489;-50
2023/12/07 11:24:54;;;;;;;;;;;15.20;55.90;;;;;;10255402;28;94333;-50
2023/12/07 11:29:57;;;;;;;;;;;15.30;55.80;;;;;;10265808;28;94421;-51
2023/12/07 11:35:01;;;;;;;;;;;15.30;55.70;;;;;;10246368;28;94062;-48
2023/12/07 11:40:05;;;;;;;;;;;15.30;55.60;;;;;;10272852;28;93455;-51
2023/12/07 11:45:07;;;;;;;;;;;15.30;55.70;;;;;;10281020;28;93565;-50
2023/12/07 11:50:09;;;;;;;;;;;15.20;55.60;;;;;;10256624;28;96867;-48
2023/12/07 11:55:11;;;;;;;;;;;15.20;55.60;;;;;;10252867;28;93551;-52
2023/12/07 12:00:13;;;;;;;;;;;15.20;55.70;;;;;;10261796;28;94805;-48
2023/12/07 12:05:15;;;;;;;;;;;15.10;55.90;;;;;;10255513;28;94469;-51
2023/12/07 12:10:19;;;;;;;;;;;15.10;55.70;;;;;;10264283;28;94019;-51
2023/12/07 12:15:21;;;;;;;;;;;15.10;55.90;;;;;;10284175;28;93627;-51
2023/12/07 12:20:24;;;;;;;;;;;15.10;55.90;;;;;;10259651;28;93431;-49
2023/12/07 12:25:28;;;;;;;;;;;15.00;55.80;;;;;;10272787;28;92929;-49
2023/12/07 12:30:30;;;;;;;;;;;15.00;55.80;;;;;;10247734;28;93539;-49
2023/12/07 12:35:32;;;;;;;;;;;15.00;55.80;;;;;;10281081;28;93919;-51
2023/12/07 12:40:34;;;;;;;;;;;14.90;55.70;;;;;;10282480;28;96061;-51
2023/12/07 12:45:36;;;;;;;;;;;14.90;55.90;;;;;;10262171;28;94955;-51
2023/12/07 12:50:39;;;;;;;;;;;14.90;55.90;;;;;;10262208;28;94002;-50
2023/12/07 12:55:41;;;;;;;;;;;15.00;55.90;;;;;;10269592;28;94257;-51
2023/12/07 13:00:44;;;;;;;;;;;15.10;55.80;;;;;;10272243;28;94535;-48
2023/12/07 13:05:47;;;;;;;;;;;15.20;55.70;;;;;;10263256;28;94367;-50
2023/12/07 13:10:49;;;;;;;;;;;15.20;55.50;;;;;;10261331;28;93951;-48
2023/12/07 13:15:51;;;;;;;;;;;15.20;55.40;;;;;;10276819;28;92835;-50
2023/12/07 13:20:53;;;;;;;;;;;15.20;55.30;;;;;;10259393;28;94388;-48
2023/12/07 13:25:57;;;;;;;;;;;15.20;55.30;;;;;;10279309;28;93436;-46
2023/12/07 13:30:59;;;;;;;;;;;15.20;55.20;;;;;;10269769;28;96867;-47
2023/12/07 13:36:01;;;;;;;;;;;15.10;55.20;;;;;;10261221;28;94964;-50
2023/12/07 13:41:08;;;;;;;;;;;15.10;55.20;;;;;;10269567;28;95428;-48
2023/12/07 13:46:10;;;;;;;;;;;15.10;55.40;;;;;;10245446;28;93488;-50
2023/12/07 13:51:12;;;;;;;;;;;15.00;55.50;;;;;;10248420;28;94455;-42
2023/12/07 13:56:14;;;;;;;;;;;15.00;55.50;;;;;;10272655;28;94616;-46
2023/12/07 14:01:17;;;;;;;;;;;14.90;55.60;;;;;;10254400;28;93490;-45
2023/12/07 14:06:27;;;;;;;;;;;14.90;55.60;;;;;;10246819;28;93781;-48
2023/12/07 14:11:30;;;;;;;;;;;14.80;55.70;;;;;;10278294;28;95280;-46
2023/12/07 14:16:32;;;;;;;;;;;14.80;55.60;;;;;;10249624;28;93940;-48
2023/12/07 14:21:54;;;;;;;;;;;14.80;55.70;;;;;;10268549;28;95495;-46
2023/12/07 14:26:57;;;;;;;;;;;14.80;55.70;;;;;;10266807;28;93482;-42
2023/12/07 14:32:00;;;;;;;;;;;14.90;55.70;;;;;;10246534;28;94477;-46
2023/12/07 14:37:05;;;;;;;;;;;15.00;55.50;;;;;;10253302;28;94177;-44
2023/12/07 14:42:08;;;;;;;;;;;15.10;55.40;;;;;;10258080;28;95215;-43
2023/12/07 14:47:10;;;;;;;;;;;15.10;55.30;;;;;;10259421;28;96007;-43
2023/12/07 14:52:12;;;;;;;;;;;15.10;55.20;;;;;;10286537;28;94729;-49
2023/12/07 14:57:14;;;;;;;;;;;15.00;55.20;;;;;;10263455;28;92699;-44
2023/12/07 15:02:16;;;;;;;;;;;15.00;55.10;;;;;;10254397;28;94611;-44
2023/12/07 15:07:18;;;;;;;;;;;15.00;55.10;;;;;;10267124;28;95661;-48
2023/12/07 15:12:20;;;;;;;;;;;15.00;55.20;;;;;;10252055;28;95866;-44
2023/12/07 15:17:22;;;;;;;;;;;14.90;55.30;;;;;;10254736;28;95854;-46
2023/12/07 15:22:24;;;;;;;;;;;14.90;55.40;;;;;;10255066;28;94181;-47
2023/12/07 15:27:26;;;;;;;;;;;14.80;55.40;;;;;;10265334;28;93580;-46
2023/12/07 15:32:28;;;;;;;;;;;14.80;55.80;;;;;;10267714;28;93033;-46
2023/12/07 15:37:30;;;;;;;;;;;14.70;55.90;;;;;;10248713;28;94893;-48
2023/12/07 15:42:32;;;;;;;;;;;14.80;56.00;;;;;;10257181;28;93407;-44
2023/12/07 15:47:34;;;;;;;;;;;14.80;56.00;;;;;;10248413;28;93549;-45
2023/12/07 15:52:36;;;;;;;;;;;14.80;55.80;;;;;;10255216;28;93271;-44
2023/12/07 15:57:38;;;;;;;;;;;14.90;55.80;;;;;;10255920;28;93454;-47
2023/12/07 16:02:40;;;;;;;;;;;14.90;55.70;;;;;;10261933;28;96252;-51
2023/12/07 16:07:42;;;;;;;;;;;14.90;55.70;;;;;;10264512;28;94516;-46
2023/12/07 16:12:44;;;;;;;;;;;14.90;55.80;;;;;;10267270;28;93448;-44
2023/12/07 16:17:46;;;;;;;;;;;15.00;56.00;;;;;;10254333;28;93399;-45
2023/12/07 16:22:48;;;;;;;;;;;15.10;55.90;;;;;;10244714;28;94478;-48
2023/12/07 16:27:50;;;;;;;;;;;15.30;55.70;;;;;;10259588;28;93200;-46
2023/12/07 16:32:52;;;;;;;;;;;15.60;55.40;;;;;;10265459;28;93598;-44
2023/12/07 16:37:54;;;;;;;;;;;15.80;54.90;;;;;;10268136;28;92049;-47
2023/12/07 16:42:57;;;;;;;;;;;16.00;54.80;;;;;;10270249;28;95465;-46
2023/12/07 16:47:59;;;;;;;;;;;16.20;54.50;;;;;;10282275;28;93479;-48
2023/12/07 16:53:01;;;;;;;;;;;16.40;54.60;;;;;;10282380;28;96818;-46
2023/12/07 16:58:03;;;;;;;;;;;16.50;56.60;;;;;;10267518;28;94019;-45
2023/12/07 17:03:05;;;;;;;;;;;16.70;58.20;;;;;;10257979;28;93986;-45
2023/12/07 17:08:07;;;;;;;;;;;16.80;58.70;;;;;;10263240;28;94371;-46
2023/12/07 17:13:09;;;;;;;;;;;16.90;59.40;;;;;;10268841;28;94368;-48
2023/12/07 17:18:14;;;;;;;;;;;17.00;58.50;;;;;;10266034;28;94558;-44
2023/12/07 17:23:15;;;;;;;;;;;17.10;57.50;;;;;;10277442;28;93616;-47
2023/12/07 17:28:18;;;;;;;;;;;17.20;57.20;;;;;;10287090;28;94787;-48
2023/12/07 17:33:20;;;;;;;;;;;17.40;56.80;;;;;;10269020;28;94616;-44
2023/12/07 17:38:22;;;;;;;;;;;17.60;55.90;;;;;;10251976;28;94438;-45
2023/12/07 17:43:24;;;;;;;;;;;17.80;55.60;;;;;;10275686;28;96827;-46
2023/12/07 17:48:26;;;;;;;;;;;17.90;55.10;;;;;;10262353;28;93772;-48
2023/12/07 17:53:28;;;;;;;;;;;17.90;54.90;;;;;;10269325;28;94206;-44
2023/12/07 17:58:30;;;;;;;;;;;18.00;54.80;;;;;;10253226;28;95300;-63
2023/12/07 18:03:32;;;;;;;;;;;18.10;54.70;;;;;;10269767;28;94114;-47
2023/12/07 18:08:34;;;;;;;;;;;18.10;54.90;;;;;;10252501;28;95142;-45
2023/12/07 18:13:36;;;;;;;;;;;18.10;55.00;;;;;;10283162;28;93872;-45
2023/12/07 18:18:38;;;;;;;;;;;18.20;54.90;;;;;;10248227;28;93026;-48
2023/12/07 18:23:42;;;;;;;;;;;18.20;54.90;;;;;;10267328;28;93577;-48
2023/12/07 18:28:44;;;;;;;;;;;18.30;55.00;;;;;;10250984;28;93886;-48
2023/12/07 18:33:47;;;;;;;;;;;18.30;55.10;;;;;;10261117;28;95910;-45
2023/12/07 18:38:49;;;;;;;;;;;18.30;55.00;;;;;;10259314;28;93803;-45
2023/12/07 18:43:51;;;;;;;;;;;18.40;54.90;;;;;;10262702;28;94427;-47
2023/12/07 18:48:53;;;;;;;;;;;18.30;54.50;;;;;;10267539;28;94407;-47
2023/12/07 18:53:55;;;;;;;;;;;18.30;54.40;;;;;;10276137;28;94420;-46
2023/12/07 18:58:57;;;;;;;;;;;18.20;54.50;;;;;;10263877;28;94479;-47
2023/12/07 19:04:00;;;;;;;;;;;18.00;54.70;;;;;;10267487;28;93315;-44
2023/12/07 19:09:06;;;;;;;;;;;18.00;54.80;;;;;;10265251;28;93993;-44
2023/12/07 19:14:08;;;;;;;;;;;18.10;54.70;;;;;;10274819;28;93484;-46
2023/12/07 19:19:10;;;;;;;;;;;18.20;54.60;;;;;;10255198;28;93375;-45
2023/12/07 19:24:12;;;;;;;;;;;18.30;54.40;;;;;;10271895;28;96869;-45
2023/12/07 19:29:14;;;;;;;;;;;18.40;54.30;;;;;;10258566;28;94791;-46
2023/12/07 19:34:16;;;;;;;;;;;18.40;54.30;;;;;;10259925;28;94862;-48
2023/12/07 19:39:18;;;;;;;;;;;18.50;54.40;;;;;;10266635;28;94650;-49
2023/12/07 19:44:20;;;;;;;;;;;18.50;54.20;;;;;;10268853;28;94057;-49
2023/12/07 19:49:22;;;;;;;;;;;18.50;54.10;;;;;;10252727;28;94035;-48
2023/12/07 19:54:25;;;;;;;;;;;18.60;53.70;;;;;;10273433;28;93679;-48
2023/12/07 19:59:26;;;;;;;;;;;18.60;53.40;;;;;;10276799;28;93733;-45
2023/12/07 20:04:29;;;;;;;;;;;18.50;53.20;;;;;;10263733;28;93478;-44
2023/12/07 20:09:31;;;;;;;;;;;18.40;53.20;;;;;;10269097;28;94959;-46
2023/12/07 20:14:32;;;;;;;;;;;18.40;53.40;;;;;;10255284;28;96047;-48
2023/12/07 20:19:34;;;;;;;;;;;18.40;53.40;;;;;;10263129;28;94094;-45
2023/12/07 20:24:37;;;;;;;;;;;18.50;53.20;;;;;;10283284;28;94853;-45
2023/12/07 20:29:39;;;;;;;;;;;18.60;52.90;;;;;;10270564;28;93448;-45
2023/12/07 20:34:40;;;;;;;;;;;18.60;52.70;;;;;;10262701;28;94472;-46
2023/12/07 20:39:42;;;;;;;;;;;18.60;52.70;;;;;;10257831;28;93692;-47
2023/12/07 20:44:46;;;;;;;;;;;18.50;52.70;;;;;;10265871;28;94453;-47
2023/12/07 20:49:48;;;;;;;;;;;18.30;52.90;;;;;;10260855;28;93212;-49
2023/12/07 20:54:50;;;;;;;;;;;18.20;53.00;;;;;;10268233;28;94444;-47
2023/12/07 20:59:52;;;;;;;;;;;18.00;53.30;;;;;;10275045;28;93811;-49
2023/12/07 21:04:53;;;;;;;;;;;17.80;53.50;;;;;;10272319;28;96910;-49
2023/12/07 21:09:56;;;;;;;;;;;17.60;53.80;;;;;;10268869;28;93486;-47
2023/12/07 21:14:57;;;;;;;;;;;17.50;54.10;;;;;;10261672;28;94195;-44
2023/12/07 21:19:59;;;;;;;;;;;17.30;54.40;;;;;;10268694;28;93253;-45
2023/12/07 21:25:01;;;;;;;;;;;17.20;54.70;;;;;;10263849;28;93067;-44
2023/12/07 21:30:03;;;;;;;;;;;17.10;54.90;;;;;;10269101;28;93633;-47
2023/12/07 21:35:07;;;;;;;;;;;16.90;55.20;;;;;;10280966;28;94593;-45
2023/12/07 21:40:10;;;;;;;;;;;16.80;55.40;;;;;;10279407;28;92712;-45
2023/12/07 21:45:12;;;;;;;;;;;16.70;55.40;;;;;;10276093;28;93788;-46
2023/12/07 21:50:14;;;;;;;;;;;16.60;55.20;;;;;;10280699;28;93744;-48
2023/12/07 21:55:16;;;;;;;;;;;16.50;54.90;;;;;;10261433;28;97418;-44
2023/12/07 22:00:18;;;;;;;;;;;16.40;54.60;;;;;;10282460;28;94276;-45
2023/12/07 22:05:20;;;;;;;;;;;16.30;54.50;;;;;;10268676;28;93932;-44
2023/12/07 22:10:22;;;;;;;;;;;16.30;54.40;;;;;;10261536;28;93699;-45
2023/12/07 22:15:30;;;;;;;;;;;16.20;54.20;;;;;;10258076;28;94506;-46
2023/12/07 22:20:32;;;;;;;;;;;16.10;54.20;;;;;;10269277;28;94529;-48
2023/12/07 22:25:34;;;;;;;;;;;16.10;54.00;;;;;;10251031;28;94079;-49
2023/12/07 22:30:36;;;;;;;;;;;16.00;54.50;;;;;;10255785;28;92755;-46
2023/12/07 22:35:38;;;;;;;;;;;15.90;54.90;;;;;;10285097;28;93191;-46
2023/12/07 22:40:40;;;;;;;;;;;15.90;54.80;;;;;;10255718;28;94077;-47
2023/12/07 22:45:42;;;;;;;;;;;15.80;54.50;;;;;;10273298;28;96439;-46
2023/12/07 22:50:44;;;;;;;;;;;15.80;54.40;;;;;;10262842;28;93531;-46
2023/12/07 22:55:45;;;;;;;;;;;15.80;54.30;;;;;;10256136;28;93900;-46
2023/12/07 23:00:48;;;;;;;;;;;15.70;54.10;;;;;;10257102;28;93389;-45
2023/12/07 23:05:50;;;;;;;;;;;15.70;53.90;;;;;;10257477;28;94313;-48
2023/12/07 23:10:52;;;;;;;;;;;15.60;53.70;;;;;;10265113;28;94930;-44
2023/12/07 23:15:54;;;;;;;;;;;15.60;53.50;;;;;;10269398;28;93023;-45
2023/12/07 23:20:56;;;;;;;;;;;15.60;53.90;;;;;;10257211;28;93560;-46
2023/12/07 23:25:59;;;;;;;;;;;15.50;54.40;;;;;;10263297;28;94437;-43
2023/12/07 23:31:01;;;;;;;;;;;15.50;54.60;;;;;;10256329;28;93653;-43
2023/12/07 23:36:03;;;;;;;;;;;15.50;54.30;;;;;;10260628;28;96804;-45
2023/12/07 23:41:05;;;;;;;;;;;15.50;54.20;;;;;;10278958;28;94568;-45
2023/12/07 23:46:08;;;;;;;;;;;15.60;53.90;;;;;;10257422;28;94723;-45
2023/12/07 23:51:09;;;;;;;;;;;15.70;53.50;;;;;;10261418;28;95155;-47
2023/12/07 23:56:17;;;;;;;;;;;15.60;53.20;;;;;;10282305;28;94349;-66
